Time;durP1;ratioP1;P1;durP2;ratioP2;P2;SDS_P1;SDS_P2;PMS_P1;PMS_P2;Temp;Humidity;BMP_temperature;BMP_pressure;BME280_temperature;BME280_humidity;BME280_pressure;Samples;Min_cycle;Max_cycle;Signal;HPM_P1;HPM_P2
2023/03/21 00:00:58;;;;;;;1.85;1.35;;;;;;;10.98;96.53;100853.00;5026029;28;20045;-51
2023/03/21 00:03:24;;;;;;;3.13;1.48;;;;;;;11.06;96.16;100847.41;5027921;28;20033;-50
2023/03/21 00:05:52;;;;;;;2.85;1.42;;;;;;;10.79;96.60;100841.06;5039736;28;20520;-49
2023/03/21 00:08:23;;;;;;;2.55;1.40;;;;;;;10.67;98.04;100843.06;5031446;28;20061;-50
2023/03/21 00:11:00;;;;;;;1.77;1.60;;;;;;;10.85;97.37;100836.97;5041523;28;20033;-47
2023/03/21 00:13:31;;;;;;;2.45;1.33;;;;;;;10.79;97.96;100838.38;5044469;28;20037;-50
2023/03/21 00:16:02;;;;;;;3.38;1.60;;;;;;;10.77;97.40;100837.16;5043875;28;20037;-49
2023/03/21 00:18:28;;;;;;;;;;;;;;;10.74;98.17;100840.56;5042184;28;20036;-52
2023/03/21 00:21:04;;;;;;;3.47;1.42;;;;;;;10.84;97.76;100838.09;5039477;28;19995;-50
2023/03/21 00:23:31;;;;;;;1.92;1.67;;;;;;;10.95;97.58;100837.53;5043559;28;20037;-50
2023/03/21 00:25:58;;;;;;;4.53;1.50;;;;;;;10.97;96.72;100833.38;5045862;28;20044;-52
2023/03/21 00:28:24;;;;;;;2.17;1.38;;;;;;;10.82;97.27;100836.88;5023108;28;20034;-52
2023/03/21 00:30:55;;;;;;;2.90;1.50;;;;;;;10.92;97.12;100833.63;5014263;28;20079;-50
2023/03/21 00:33:22;;;;;;;2.42;1.60;;;;;;;10.76;96.88;100827.53;5019146;28;20041;-50
2023/03/21 00:35:50;;;;;;;2.60;1.67;;;;;;;10.84;97.65;100831.91;5014514;28;20148;-49
2023/03/21 00:38:17;;;;;;;5.45;2.25;;;;;;;11.00;97.48;100823.78;5032645;28;20411;-50
2023/03/21 00:40:43;;;;;;;3.80;1.92;;;;;;;11.06;96.69;100833.16;5028976;28;20029;-53
2023/03/21 00:43:11;;;;;;;3.53;2.10;;;;;;;11.00;96.78;100829.19;5036828;28;20037;-49
2023/03/21 00:45:37;;;;;;;4.35;2.40;;;;;;;10.99;96.66;100822.25;5035576;28;20484;-50
2023/03/21 00:48:04;;;;;;;4.60;1.98;;;;;;;10.85;97.60;100825.41;5042329;28;20112;-51
2023/03/21 00:50:31;;;;;;;3.03;1.73;;;;;;;10.84;97.99;100829.22;5037266;28;20109;-48
2023/03/21 00:52:57;;;;;;;3.33;1.58;;;;;;;10.93;98.13;100821.75;5030031;28;20037;-52
2023/03/21 00:55:23;;;;;;;2.13;1.45;;;;;;;10.89;97.32;100818.97;5039019;28;20090;-50
2023/03/21 00:57:48;;;;;;;3.28;2.08;;;;;;;10.98;97.26;100816.06;5026367;28;20037;-50
2023/03/21 01:00:16;;;;;;;3.60;1.92;;;;;;;11.00;97.26;100816.50;5028099;28;20108;-49
2023/03/21 01:02:55;;;;;;;4.60;1.70;;;;;;;10.92;97.26;100812.09;5027628;28;20037;-50
2023/03/21 01:08:12;;;;;;;3.45;1.35;;;;;;;10.90;98.07;100803.56;5039026;28;20033;-50
2023/03/21 01:10:44;;;;;;;5.15;2.80;;;;;;;10.95;97.47;100810.59;5038482;28;20021;-50
2023/03/21 01:13:12;;;;;;;4.90;2.35;;;;;;;10.88;97.44;100803.94;5034681;28;20036;-50
2023/03/21 01:15:44;;;;;;;2.67;2.35;;;;;;;10.88;98.64;100801.22;5035110;28;20056;-51
2023/03/21 01:18:10;;;;;;;7.00;2.83;;;;;;;10.91;98.38;100802.44;5034407;28;20112;-50
2023/03/21 01:20:35;;;;;;;5.80;2.28;;;;;;;10.95;97.50;100811.38;5039359;28;20452;-55
2023/03/21 01:23:01;;;;;;;4.45;1.90;;;;;;;10.93;98.08;100802.88;5032893;28;20432;-53
2023/03/21 01:25:27;;;;;;;5.03;2.10;;;;;;;10.94;97.87;100809.06;5030099;28;20025;-54
2023/03/21 01:27:53;;;;;;;4.70;1.80;;;;;;;11.05;97.68;100796.56;5030400;28;20029;-52
2023/03/21 01:30:20;;;;;;;3.92;2.15;;;;;;;10.99;97.94;100796.09;5023714;28;20040;-50
2023/03/21 01:32:45;;;;;;;4.63;2.35;;;;;;;11.04;97.75;100795.78;5020162;28;20040;-51
2023/03/21 01:35:11;;;;;;;4.55;2.13;;;;;;;11.03;98.32;100796.16;5028356;28;20392;-50
2023/03/21 01:37:36;;;;;;;5.32;2.35;;;;;;;11.11;98.29;100803.25;5043909;28;20091;-50
2023/03/21 01:40:03;;;;;;;6.05;1.98;;;;;;;11.07;97.63;100802.41;5025030;28;20116;-51
2023/03/21 01:42:29;;;;;;;4.00;2.38;;;;;;;11.05;97.79;100808.16;5028809;28;20041;-50
2023/03/21 01:44:58;;;;;;;5.93;2.65;;;;;;;11.01;98.05;100801.09;5033059;28;20385;-50
2023/03/21 01:47:32;;;;;;;4.45;2.33;;;;;;;11.04;98.25;100803.09;5032291;28;20039;-51
2023/03/21 01:50:07;;;;;;;3.38;2.30;;;;;;;11.06;98.56;100798.91;5026574;28;20034;-51
2023/03/21 01:52:40;;;;;;;5.43;3.03;;;;;;;11.12;96.94;100799.41;5029534;28;20029;-49
2023/03/21 01:55:12;;;;;;;4.40;2.75;;;;;;;10.99;98.09;100796.09;5040034;28;20035;-50
2023/03/21 01:57:55;;;;;;;3.05;1.85;;;;;;;10.93;98.90;100802.09;5035112;28;20038;-50
2023/03/21 02:00:25;;;;;;;4.13;2.13;;;;;;;11.03;98.50;100796.94;5024275;28;20057;-51
2023/03/21 02:03:07;;;;;;;4.60;2.58;;;;;;;11.09;97.81;100794.75;5030727;28;20033;-50
2023/03/21 02:06:00;;;;;;;8.30;3.28;;;;;;;11.15;97.27;100790.63;5034136;28;20076;-50
2023/03/21 02:08:31;;;;;;;2.72;1.60;;;;;;;10.98;98.20;100789.13;5013748;28;20030;-50
2023/03/21 02:10:58;;;;;;;6.20;2.83;;;;;;;11.02;98.44;100789.97;5029187;28;20120;-50
2023/03/21 02:13:35;;;;;;;2.85;1.42;;;;;;;10.99;98.61;100781.81;5048648;28;20036;-48
2023/03/21 02:16:40;;;;;;;5.88;2.83;;;;;;;11.00;99.09;100780.69;5014867;28;20123;-51
2023/03/21 02:19:44;;;;;;;8.25;3.13;;;;;;;11.05;98.65;100777.72;5012065;28;20041;-51
2023/03/21 02:22:34;;;;;;;4.20;2.42;;;;;;;11.04;98.68;100774.22;5032306;28;20036;-51
2023/03/21 02:25:20;;;;;;;4.55;2.10;;;;;;;10.92;99.48;100766.28;5014051;28;20082;-50
2023/03/21 02:27:53;;;;;;;5.00;2.65;;;;;;;11.01;99.64;100771.47;5032849;28;20029;-49
2023/03/21 02:30:31;;;;;;;3.78;2.10;;;;;;;10.98;99.54;100767.56;5039448;28;20048;-52
2023/03/21 02:32:57;;;;;;;4.75;2.53;;;;;;;10.86;99.52;100757.69;5025368;28;20124;-50
2023/03/21 02:35:31;;;;;;;4.55;1.90;;;;;;;11.02;99.29;100751.47;5017234;28;20684;-50
2023/03/21 02:38:01;;;;;;;4.30;2.10;;;;;;;11.05;99.18;100762.34;5024590;28;20094;-50
2023/03/21 02:40:32;;;;;;;4.88;2.45;;;;;;;10.95;99.72;100756.72;5026466;28;20568;-50
2023/03/21 02:43:40;;;;;;;3.60;1.80;;;;;;;10.94;99.67;100760.56;5025184;28;20092;-57
2023/03/21 02:46:20;;;;;;;3.90;2.17;;;;;;;10.91;100.00;100762.03;5013424;28;20056;-55
2023/03/21 02:49:10;;;;;;;6.15;2.72;;;;;;;10.83;100.00;100755.72;5029818;28;20558;-55
2023/03/21 02:51:39;;;;;;;3.55;2.42;;;;;;;10.93;100.00;100754.38;5021865;28;20669;-51
2023/03/21 02:54:09;;;;;;;4.60;2.28;;;;;;;11.09;99.21;100755.06;5014818;28;20052;-51
2023/03/21 02:56:36;;;;;;;6.13;2.08;;;;;;;10.96;99.27;100752.88;5031442;28;20033;-50
2023/03/21 02:59:05;;;;;;;3.63;1.85;;;;;;;10.95;100.00;100756.72;5038561;28;20617;-50
2023/03/21 03:01:31;;;;;;;5.65;2.47;;;;;;;10.97;99.99;100757.94;5039864;28;20044;-50
2023/03/21 03:03:57;;;;;;;3.75;1.85;;;;;;;10.90;100.00;100757.78;5029364;28;20029;-53
2023/03/21 03:06:29;;;;;;;4.47;2.65;;;;;;;10.87;100.00;100743.13;5027637;28;20419;-51
2023/03/21 03:08:59;;;;;;;2.90;1.92;;;;;;;10.94;100.00;100750.53;5029840;28;20033;-53
2023/03/21 03:11:30;;;;;;;5.25;2.15;;;;;;;10.87;100.00;100745.81;5028806;28;20083;-55
2023/03/21 03:14:21;;;;;;;4.15;2.17;;;;;;;10.93;100.00;100748.22;5037212;28;20091;-51
2023/03/21 03:17:13;;;;;;;4.97;2.72;;;;;;;11.01;100.00;100749.91;5028598;28;20072;-51
2023/03/21 03:20:05;;;;;;;2.90;1.70;;;;;;;11.04;99.92;100741.91;5029158;28;20041;-48
2023/03/21 03:22:45;;;;;;;4.85;2.65;;;;;;;11.07;100.00;100748.50;5039060;28;20490;-50
2023/03/21 03:25:18;;;;;;;5.60;3.15;;;;;;;11.13;100.00;100747.84;5021690;28;20060;-48
2023/03/21 03:27:47;;;;;;;3.05;1.88;;;;;;;11.05;100.00;100748.06;5027584;28;20042;-49
2023/03/21 03:30:13;;;;;;;4.60;2.83;;;;;;;11.22;99.61;100739.53;5027690;28;20029;-48
2023/03/21 03:32:46;;;;;;;4.78;2.60;;;;;;;11.16;99.53;100743.66;5038937;28;20033;-49
2023/03/21 03:35:17;;;;;;;3.88;1.77;;;;;;;11.04;99.66;100735.72;5042902;28;20035;-49
2023/03/21 03:37:52;;;;;;;5.07;2.15;;;;;;;10.98;100.00;100737.13;5028951;28;20033;-51
2023/03/21 03:40:26;;;;;;;3.70;2.08;;;;;;;10.99;100.00;100736.00;5030088;28;20021;-49
2023/03/21 03:43:09;;;;;;;4.95;2.10;;;;;;;11.00;100.00;100737.56;5030257;28;20029;-49
2023/03/21 03:45:49;;;;;;;3.53;1.88;;;;;;;11.00;100.00;100727.56;5026289;28;20056;-49
2023/03/21 03:48:27;;;;;;;4.45;1.30;;;;;;;10.97;100.00;100724.81;5020235;28;20025;-50
2023/03/21 03:51:03;;;;;;;5.43;2.17;;;;;;;10.96;100.00;100721.31;5040861;28;20030;-50
2023/03/21 03:54:00;;;;;;;2.50;1.63;;;;;;;11.05;100.00;100721.13;5032634;28;20038;-48
2023/03/21 03:56:28;;;;;;;5.03;3.15;;;;;;;11.10;100.00;100723.53;5012109;28;20033;-50
2023/03/21 03:58:56;;;;;;;5.47;2.83;;;;;;;11.15;99.50;100723.25;5044177;28;20068;-50
2023/03/21 04:01:33;;;;;;;4.53;2.03;;;;;;;11.12;100.00;100737.41;5020300;28;20054;-51
2023/03/21 04:03:59;;;;;;;3.20;2.28;;;;;;;11.12;99.43;100732.81;5028409;28;20060;-51
2023/03/21 04:06:27;;;;;;;3.55;1.95;;;;;;;11.06;100.00;100734.22;5032867;28;20045;-49
2023/03/21 04:08:56;;;;;;;2.45;2.25;;;;;;;11.17;99.24;100731.75;5028328;28;20083;-50
2023/03/21 04:11:22;;;;;;;6.63;2.55;;;;;;;11.23;98.89;100727.63;5032862;28;20494;-47
2023/03/21 04:13:51;;;;;;;6.15;3.00;;;;;;;11.15;99.31;100742.13;5047217;28;20040;-52
2023/03/21 04:16:22;;;;;;;4.45;2.22;;;;;;;11.08;100.00;100731.19;5026892;28;20509;-47
2023/03/21 04:18:48;;;;;;;5.65;2.47;;;;;;;11.16;99.77;100736.34;5039599;28;20045;-51
2023/03/21 04:21:16;;;;;;;5.57;2.58;;;;;;;11.10;100.00;100731.59;5028306;28;20022;-52
2023/03/21 04:23:42;;;;;;;3.35;1.70;;;;;;;11.04;100.00;100738.41;5033723;28;20032;-53
2023/03/21 04:26:08;;;;;;;5.97;3.00;;;;;;;10.91;100.00;100735.09;5020941;28;20025;-53
2023/03/21 04:28:38;;;;;;;4.97;2.60;;;;;;;10.84;100.00;100730.34;5039039;28;20406;-53
2023/03/21 04:31:19;;;;;;;5.25;1.90;;;;;;;10.96;100.00;100725.94;5040113;28;20037;-50
2023/03/21 04:33:49;;;;;;;6.72;3.08;;;;;;;10.99;100.00;100728.72;5031306;28;20805;-49
2023/03/21 04:36:25;;;;;;;5.25;2.85;;;;;;;10.99;100.00;100719.84;5037400;28;20036;-51
2023/03/21 04:38:52;;;;;;;3.13;1.80;;;;;;;10.95;100.00;100725.16;5015942;28;20057;-49
2023/03/21 04:41:18;;;;;;;3.45;2.00;;;;;;;10.95;100.00;100722.47;5026011;28;20021;-50
2023/03/21 04:43:44;;;;;;;4.88;2.20;;;;;;;10.99;100.00;100730.63;5025908;28;20036;-50
2023/03/21 04:46:10;;;;;;;4.20;2.60;;;;;;;11.09;100.00;100735.44;5015306;28;20498;-49
2023/03/21 04:48:36;;;;;;;6.07;3.08;;;;;;;11.12;100.00;100723.94;5015485;28;20033;-50
2023/03/21 04:51:03;;;;;;;2.75;1.33;;;;;;;11.07;100.00;100732.31;5034426;28;20030;-54
2023/03/21 04:53:30;;;;;;;7.78;3.08;;;;;;;11.04;100.00;100725.72;5027086;28;20057;-55
2023/03/21 04:55:56;;;;;;;2.58;1.65;;;;;;;10.94;100.00;100728.22;5027186;28;20021;-51
2023/03/21 04:58:23;;;;;;;4.53;2.05;;;;;;;10.71;100.00;100720.84;5029609;28;20029;-50
2023/03/21 05:00:51;;;;;;;4.38;2.38;;;;;;;10.88;100.00;100727.69;5035330;28;20083;-51
2023/03/21 05:03:20;;;;;;;5.35;2.80;;;;;;;10.99;100.00;100727.94;5023671;28;20492;-49
2023/03/21 05:05:47;;;;;;;4.05;2.53;;;;;;;11.00;100.00;100732.16;5026325;28;20049;-54
2023/03/21 05:08:14;;;;;;;3.50;2.28;;;;;;;11.13;100.00;100730.91;5017051;28;20033;-53
2023/03/21 05:10:40;;;;;;;3.78;2.20;;;;;;;11.21;100.00;100724.50;5026795;28;20041;-50
2023/03/21 05:13:07;;;;;;;5.55;2.50;;;;;;;11.14;100.00;100713.59;5025903;28;20124;-50
2023/03/21 05:15:32;;;;;;;5.10;2.60;;;;;;;11.15;100.00;100718.63;5026267;28;20116;-57
2023/03/21 05:17:58;;;;;;;7.43;2.55;;;;;;;11.02;100.00;100717.22;5023511;28;20025;-51
2023/03/21 05:20:24;;;;;;;7.15;2.92;;;;;;;11.08;100.00;100723.88;5024601;28;20033;-50
2023/03/21 05:22:51;;;;;;;3.72;2.30;;;;;;;11.13;100.00;100731.66;5033550;28;20435;-54
2023/03/21 05:25:20;;;;;;;4.53;2.67;;;;;;;11.13;100.00;100720.13;5027477;28;20026;-50
2023/03/21 05:28:00;;;;;;;9.73;3.00;;;;;;;11.16;100.00;100722.88;5029492;28;20025;-54
2023/03/21 05:30:28;;;;;;;6.38;2.97;;;;;;;11.13;100.00;100718.19;5032439;28;20029;-53
2023/03/21 05:32:58;;;;;;;4.35;2.58;;;;;;;10.94;100.00;100720.16;5038262;28;20057;-50
2023/03/21 05:35:44;;;;;;;8.48;3.35;;;;;;;11.00;100.00;100721.38;5029170;28;20033;-55
2023/03/21 05:38:11;;;;;;;7.38;3.38;;;;;;;11.11;100.00;100708.91;4977750;28;20518;-57
2023/03/21 05:40:49;;;;;;;3.90;2.50;;;;;;;11.11;100.00;100711.63;4969977;28;20042;-54
2023/03/21 05:43:16;;;;;;;4.28;2.88;;;;;;;11.06;100.00;100703.81;4962407;28;20544;-53
2023/03/21 05:45:42;;;;;;;4.82;2.33;;;;;;;10.98;100.00;100720.97;4981720;28;20079;-48
2023/03/21 05:48:08;;;;;;;2.78;2.15;;;;;;;11.16;100.00;100711.31;4985231;28;20636;-48
2023/03/21 05:50:47;;;;;;;7.75;3.28;;;;;;;11.17;100.00;100710.19;4973109;28;20030;-50
2023/03/21 05:53:17;;;;;;;2.78;1.88;;;;;;;11.11;100.00;100706.22;4982842;28;20030;-50
2023/03/21 05:55:42;;;;;;;3.22;1.63;;;;;;;11.03;100.00;100708.00;4968007;28;20587;-50
2023/03/21 05:58:14;;;;;;;4.78;2.63;;;;;;;11.11;100.00;100708.91;4974677;28;20437;-49
2023/03/21 06:00:46;;;;;;;5.80;2.97;;;;;;;11.23;100.00;100704.13;4957012;28;20049;-53
2023/03/21 06:03:23;;;;;;;5.25;2.42;;;;;;;10.86;100.00;100703.81;4962571;28;20085;-48
2023/03/21 06:06:17;;;;;;;3.53;2.35;;;;;;;10.97;100.00;100717.50;4966413;28;20035;-47
2023/03/21 06:08:54;;;;;;;6.45;2.50;;;;;;;10.99;100.00;100711.75;4974210;28;20486;-51
2023/03/21 06:11:27;;;;;;;6.70;2.45;;;;;;;11.03;100.00;100712.63;4962062;28;20401;-53
2023/03/21 06:14:14;;;;;;;5.95;2.75;;;;;;;11.08;100.00;100702.31;4976218;28;20125;-52
2023/03/21 06:16:42;;;;;;;6.38;2.88;;;;;;;11.15;100.00;100702.44;5034884;28;20117;-54
2023/03/21 06:19:07;;;;;;;4.05;2.13;;;;;;;11.08;100.00;100706.91;5014315;28;20025;-51
2023/03/21 06:21:56;;;;;;;6.32;2.72;;;;;;;11.08;100.00;100707.72;5002522;28;20687;-52
2023/03/21 06:24:21;;;;;;;7.45;1.55;;;;;;;11.29;100.00;100707.31;5028106;28;20109;-50
2023/03/21 06:26:47;;;;;;;5.78;2.83;;;;;;;11.23;100.00;100703.34;5003148;28;20057;-53
2023/03/21 06:29:13;;;;;;;3.40;2.22;;;;;;;11.06;100.00;100706.50;5014242;28;20518;-48
2023/03/21 06:31:44;;;;;;;5.65;2.40;;;;;;;10.97;100.00;100695.97;5016658;28;20610;-50
2023/03/21 06:34:10;;;;;;;4.13;1.98;;;;;;;10.99;100.00;100695.59;5011554;28;20046;-49
2023/03/21 06:36:37;;;;;;;6.20;2.42;;;;;;;10.62;100.00;100696.03;5014073;28;20034;-50
2023/03/21 06:39:03;;;;;;;8.55;3.38;;;;;;;10.49;100.00;100691.13;5019241;28;20037;-48
2023/03/21 06:41:29;;;;;;;5.93;2.05;;;;;;;10.74;100.00;100693.19;5016945;28;20056;-50
2023/03/21 06:44:02;;;;;;;3.63;2.30;;;;;;;10.87;100.00;100694.63;5009506;28;20104;-50
2023/03/21 06:46:32;;;;;;;4.05;2.25;;;;;;;11.10;100.00;100689.28;5006790;28;20056;-50
2023/03/21 06:48:57;;;;;;;3.42;1.95;;;;;;;11.18;100.00;100696.34;5026878;28;20025;-50
2023/03/21 06:51:24;;;;;;;3.50;2.08;;;;;;;11.28;100.00;100689.59;5012612;28;20029;-51
2023/03/21 06:54:03;;;;;;;6.18;2.92;;;;;;;11.28;100.00;100689.59;5004444;28;20029;-50
2023/03/21 06:56:37;;;;;;;5.75;2.80;;;;;;;11.26;100.00;100691.88;5017959;28;20026;-52
2023/03/21 06:59:03;;;;;;;6.88;2.65;;;;;;;11.24;100.00;100696.84;5012929;28;20029;-51
2023/03/21 07:02:04;;;;;;;6.68;3.05;;;;;;;11.21;100.00;100700.22;5008064;28;20479;-50
2023/03/21 07:04:34;;;;;;;3.90;2.33;;;;;;;11.26;100.00;100698.06;5025000;28;20561;-49
2023/03/21 07:07:00;;;;;;;3.80;2.50;;;;;;;11.36;100.00;100696.69;5026907;28;20547;-49
2023/03/21 07:09:27;;;;;;;5.10;2.35;;;;;;;11.28;100.00;100695.00;5042654;28;20115;-50
2023/03/21 07:11:56;;;;;;;6.35;2.42;;;;;;;11.32;100.00;100695.84;5040620;28;20041;-50
2023/03/21 07:14:26;;;;;;;5.93;2.97;;;;;;;11.34;100.00;100702.41;5029929;28;20079;-52
2023/03/21 07:16:52;;;;;;;5.10;2.65;;;;;;;11.29;100.00;100691.13;5020507;28;20022;-53
2023/03/21 07:19:18;;;;;;;5.95;3.42;;;;;;;11.22;100.00;100701.81;5045788;28;20025;-52
2023/03/21 07:21:43;;;;;;;6.70;2.55;;;;;;;11.11;100.00;100695.44;5030305;28;20117;-53
2023/03/21 07:24:09;;;;;;;7.63;3.20;;;;;;;11.19;100.00;100699.84;5031799;28;20056;-48
2023/03/21 07:26:35;;;;;;;5.18;2.00;;;;;;;11.33;100.00;100690.06;5030170;28;20040;-50
2023/03/21 07:29:02;;;;;;;7.07;3.03;;;;;;;11.30;100.00;100690.81;5031083;28;20103;-55
2023/03/21 07:31:28;;;;;;;4.35;2.30;;;;;;;11.19;100.00;100686.38;5035177;28;20021;-52
2023/03/21 07:33:54;;;;;;;5.30;2.20;;;;;;;11.23;100.00;100693.34;5033521;28;20530;-47
2023/03/21 07:36:21;;;;;;;7.32;3.00;;;;;;;11.32;100.00;100699.31;5033420;28;20033;-53
2023/03/21 07:38:47;;;;;;;6.90;2.50;;;;;;;11.34;100.00;100688.94;5011230;28;20037;-50
2023/03/21 07:41:14;;;;;;;5.13;3.00;;;;;;;11.43;100.00;100702.19;5046083;28;20029;-50
2023/03/21 07:43:39;;;;;;;6.95;2.88;;;;;;;11.45;100.00;100698.00;5019589;28;20039;-49
2023/03/21 07:46:08;;;;;;;7.50;2.80;;;;;;;11.43;100.00;100696.78;5009533;28;20124;-50
2023/03/21 07:48:33;;;;;;;8.10;3.35;;;;;;;11.35;100.00;100698.59;5017311;28;20117;-49
2023/03/21 07:51:01;;;;;;;2.67;2.00;;;;;;;11.45;100.00;100699.91;5043225;28;20033;-49
2023/03/21 07:53:26;;;;;;;6.45;2.40;;;;;;;11.58;100.00;100702.06;5026020;28;20029;-55
2023/03/21 07:55:55;;;;;;;5.30;2.08;;;;;;;11.65;100.00;100698.72;5026894;28;20084;-51
2023/03/21 07:58:21;;;;;;;5.35;2.22;;;;;;;11.46;100.00;100696.84;5017739;28;20556;-52
2023/03/21 08:00:47;;;;;;;6.20;2.65;;;;;;;11.45;100.00;100698.00;5013500;28;20044;-49
2023/03/21 08:03:13;;;;;;;5.28;3.30;;;;;;;11.56;100.00;100701.66;5010851;28;20026;-55
2023/03/21 08:05:39;;;;;;;4.80;2.88;;;;;;;11.45;100.00;100700.69;5015654;28;20063;-52
2023/03/21 08:08:05;;;;;;;8.30;3.00;;;;;;;11.49;100.00;100698.06;5012530;28;20033;-51
2023/03/21 08:10:31;;;;;;;3.35;2.55;;;;;;;11.61;100.00;100700.59;5032352;28;20029;-54
2023/03/21 08:12:57;;;;;;;5.90;2.83;;;;;;;11.66;100.00;100703.00;5027334;28;20080;-55
2023/03/21 08:15:22;;;;;;;3.05;1.60;;;;;;;11.69;100.00;100705.00;5026810;28;20480;-51
2023/03/21 08:17:48;;;;;;;6.70;2.38;;;;;;;11.64;100.00;100697.16;5025504;28;20613;-56
2023/03/21 08:20:17;;;;;;;6.95;3.08;;;;;;;11.52;100.00;100700.03;5018608;28;20430;-55
2023/03/21 08:22:43;;;;;;;6.30;3.35;;;;;;;11.70;100.00;100698.44;5024216;28;20079;-57
2023/03/21 08:25:16;;;;;;;5.03;2.72;;;;;;;11.47;100.00;100690.34;5031714;28;20034;-53
2023/03/21 08:27:44;;;;;;;4.93;2.47;;;;;;;11.52;100.00;100694.63;5028251;28;20083;-56
2023/03/21 08:30:11;;;;;;;4.90;2.25;;;;;;;11.59;100.00;100698.22;5014477;28;20123;-55
2023/03/21 08:32:37;;;;;;;4.03;2.47;;;;;;;11.55;100.00;100689.31;5017124;28;20041;-55
2023/03/21 08:35:08;;;;;;;4.05;1.92;;;;;;;11.64;100.00;100697.16;5022724;28;20096;-50
2023/03/21 08:37:35;;;;;;;5.00;2.33;;;;;;;11.78;100.00;100689.31;5019260;28;20041;-50
2023/03/21 08:40:01;;;;;;;3.90;2.15;;;;;;;11.83;100.00;100694.41;5029870;28;20029;-50
2023/03/21 08:42:26;;;;;;;4.53;1.98;;;;;;;11.72;100.00;100690.75;5037752;28;20033;-51
2023/03/21 08:44:51;;;;;;;3.45;2.67;;;;;;;11.72;100.00;100678.06;5025459;28;20034;-54
2023/03/21 08:47:17;;;;;;;3.15;2.63;;;;;;;11.82;100.00;100686.69;5022152;28;20050;-49
2023/03/21 08:49:44;;;;;;;5.28;3.00;;;;;;;11.87;100.00;100689.06;5023343;28;20037;-50
2023/03/21 08:52:10;;;;;;;3.85;2.72;;;;;;;11.79;100.00;100691.66;5031040;28;20024;-49
2023/03/21 08:54:36;;;;;;;4.85;2.90;;;;;;;11.94;100.00;100683.78;5028054;28;20034;-51
2023/03/21 08:57:02;;;;;;;3.97;2.55;;;;;;;11.81;100.00;100683.19;5033715;28;20060;-49
2023/03/21 08:59:28;;;;;;;7.25;2.40;;;;;;;11.89;100.00;100692.19;5028747;28;20037;-50
2023/03/21 09:01:53;;;;;;;6.18;2.50;;;;;;;11.79;100.00;100693.56;5018082;28;20105;-49
2023/03/21 09:04:19;;;;;;;4.60;2.55;;;;;;;11.92;100.00;100681.47;5034335;28;20035;-50
2023/03/21 09:06:46;;;;;;;6.47;2.60;;;;;;;11.97;100.00;100681.13;5026402;28;20098;-48
2023/03/21 09:09:12;;;;;;;2.78;1.88;;;;;;;12.08;100.00;100690.16;5021822;28;20621;-50
2023/03/21 09:11:37;;;;;;;3.20;1.50;;;;;;;12.09;100.00;100689.03;5018241;28;20063;-50
2023/03/21 09:14:04;;;;;;;5.97;2.75;;;;;;;12.08;100.00;100679.38;5018982;28;20103;-49
2023/03/21 09:16:30;;;;;;;5.45;2.17;;;;;;;12.09;100.00;100686.34;5037714;28;20043;-50
2023/03/21 09:18:57;;;;;;;5.25;2.30;;;;;;;11.93;100.00;100683.00;5032748;28;20029;-52
2023/03/21 09:21:26;;;;;;;4.18;2.22;;;;;;;11.85;100.00;100678.63;5033713;28;20040;-52
2023/03/21 09:23:55;;;;;;;3.75;2.35;;;;;;;11.81;100.00;100677.03;5030926;28;20052;-52
2023/03/21 09:26:22;;;;;;;6.20;2.72;;;;;;;11.98;100.00;100682.69;5018539;28;20079;-50
2023/03/21 09:28:48;;;;;;;5.43;3.30;;;;;;;11.98;100.00;100685.38;5029303;28;20029;-50
2023/03/21 09:31:21;;;;;;;5.18;2.75;;;;;;;12.01;100.00;100690.06;5031026;28;20495;-51
2023/03/21 09:33:51;;;;;;;4.13;2.42;;;;;;;11.95;100.00;100686.13;5029678;28;20040;-50
2023/03/21 09:36:19;;;;;;;4.47;2.15;;;;;;;12.13;100.00;100692.56;5019818;28;20037;-50
2023/03/21 09:38:47;;;;;;;6.50;2.40;;;;;;;12.10;100.00;100684.41;5023364;28;20029;-51
2023/03/21 09:41:31;;;;;;;2.90;1.50;;;;;;;12.08;100.00;100684.75;5026147;28;20034;-52
2023/03/21 09:43:59;;;;;;;8.88;2.22;;;;;;;12.08;100.00;100684.75;5022569;28;20032;-50
2023/03/21 09:47:01;;;;;;;4.93;1.88;;;;;;;12.00;100.00;100680.41;5031425;28;20038;-48
2023/03/21 09:49:37;;;;;;;4.10;2.50;;;;;;;11.80;100.00;100678.94;5018688;28;20377;-50
2023/03/21 09:52:12;;;;;;;3.25;1.73;;;;;;;11.93;100.00;100680.31;5033887;28;20038;-52
2023/03/21 09:54:42;;;;;;;4.88;2.90;;;;;;;11.93;100.00;100680.31;5019440;28;20246;-49
2023/03/21 09:57:38;;;;;;;3.05;1.60;;;;;;;11.95;100.00;100679.94;5019610;28;20116;-50
2023/03/21 10:00:13;;;;;;;5.45;1.92;;;;;;;11.93;100.00;100676.81;5017835;28;20040;-50
2023/03/21 10:02:48;;;;;;;5.07;2.20;;;;;;;12.07;100.00;100683.22;5022503;28;20029;-51
2023/03/21 10:05:24;;;;;;;3.45;1.92;;;;;;;12.16;100.00;100670.22;5026032;28;20026;-48
2023/03/21 10:07:54;;;;;;;3.63;2.10;;;;;;;12.24;100.00;100666.50;5018197;28;20028;-50
2023/03/21 10:10:31;;;;;;;6.20;2.88;;;;;;;12.48;100.00;100674.16;5019637;28;20060;-48
2023/03/21 10:12:56;;;;;;;3.85;2.17;;;;;;;12.41;100.00;100670.56;5022290;28;20037;-50
2023/03/21 10:15:24;;;;;;;3.85;1.92;;;;;;;12.54;100.00;100666.50;5026953;28;20032;-49
2023/03/21 10:18:00;;;;;;;3.80;2.05;;;;;;;12.58;100.00;100667.31;5027798;28;20377;-48
2023/03/21 10:20:31;;;;;;;4.88;2.05;;;;;;;12.53;100.00;100667.63;5022351;28;20437;-52
2023/03/21 10:23:00;;;;;;;2.47;1.25;;;;;;;12.54;100.00;100669.97;5031713;28;20040;-48
2023/03/21 10:25:34;;;;;;;8.60;2.85;;;;;;;12.52;100.00;100666.84;5017252;28;20033;-49
2023/03/21 10:28:01;;;;;;;6.53;2.22;;;;;;;12.66;100.00;100663.53;5029910;28;20056;-49
2023/03/21 10:30:31;;;;;;;4.72;2.08;;;;;;;12.62;100.00;100657.31;5034257;28;20139;-53
2023/03/21 10:33:03;;;;;;;4.57;2.15;;;;;;;12.72;100.00;100658.63;5036702;28;20024;-49
2023/03/21 10:35:32;;;;;;;4.82;2.25;;;;;;;12.62;100.00;100652.69;5026997;28;20029;-50
2023/03/21 10:38:00;;;;;;;4.47;2.38;;;;;;;12.61;100.00;100663.88;5029063;28;20488;-48
2023/03/21 10:40:26;;;;;;;3.67;2.03;;;;;;;12.61;100.00;100653.84;5025808;28;20052;-50
2023/03/21 10:42:55;;;;;;;3.20;1.67;;;;;;;12.62;100.00;100663.50;5021403;28;20025;-52
2023/03/21 10:45:21;;;;;;;3.75;2.05;;;;;;;12.69;100.00;100655.50;5022850;28;20444;-52
2023/03/21 10:47:48;;;;;;;3.38;1.42;;;;;;;12.73;100.00;100654.75;5019234;28;20070;-57
2023/03/21 10:50:16;;;;;;;2.95;1.73;;;;;;;12.58;100.00;100651.88;5032864;28;20120;-53
2023/03/21 10:52:49;;;;;;;3.72;2.08;;;;;;;12.62;100.00;100649.22;5034703;28;20116;-57
2023/03/21 10:55:18;;;;;;;2.83;1.55;;;;;;;12.65;100.00;100651.97;5030127;28;20030;-52
2023/03/21 10:57:46;;;;;;;4.38;2.17;;;;;;;12.64;100.00;100653.09;5041580;28;20412;-52
2023/03/21 11:00:32;;;;;;;4.60;2.47;;;;;;;12.70;100.00;100651.63;5027702;28;20042;-54
2023/03/21 11:02:59;;;;;;;4.00;2.25;;;;;;;12.57;100.00;100649.53;5027649;28;20107;-48
2023/03/21 11:05:32;;;;;;;4.70;2.25;;;;;;;12.67;100.00;100641.56;5021837;28;20029;-52
2023/03/21 11:08:05;;;;;;;3.88;1.83;;;;;;;12.69;100.00;100639.28;5026528;28;20052;-54
2023/03/21 11:10:37;;;;;;;4.93;1.88;;;;;;;12.72;100.00;100637.00;5021532;28;20037;-53
2023/03/21 11:13:15;;;;;;;5.55;2.45;;;;;;;12.72;100.00;100637.75;5021032;28;20047;-53
2023/03/21 11:15:57;;;;;;;6.15;1.70;;;;;;;12.68;100.00;100629.59;5021807;28;20083;-54
2023/03/21 11:18:29;;;;;;;2.97;2.22;;;;;;;12.76;100.00;100622.34;5015812;28;20338;-55
2023/03/21 11:21:01;;;;;;;6.13;2.80;;;;;;;12.86;100.00;100626.31;5014488;28;20061;-57
2023/03/21 11:23:30;;;;;;;5.35;2.30;;;;;;;12.72;100.00;100637.00;5015153;28;20535;-53
2023/03/21 11:25:59;;;;;;;4.13;1.73;;;;;;;12.53;100.00;100625.19;5019300;28;20032;-54
2023/03/21 11:28:32;;;;;;;3.55;2.17;;;;;;;12.63;100.00;100621.06;5030405;28;20033;-54
2023/03/21 11:31:00;;;;;;;3.80;2.20;;;;;;;12.63;100.00;100634.56;5030324;28;20052;-53
2023/03/21 11:33:30;;;;;;;5.72;2.50;;;;;;;12.65;100.00;100626.88;5031515;28;20041;-53
2023/03/21 11:36:05;;;;;;;3.65;1.58;;;;;;;12.63;100.00;100624.53;5018412;28;20025;-52
2023/03/21 11:38:38;;;;;;;3.38;1.58;;;;;;;12.77;100.00;100623.16;5028988;28;20032;-55